Time;durP1;ratioP1;P1;durP2;ratioP2;P2;SDS_P1;SDS_P2;PMS_P1;PMS_P2;Temp;Humidity;BMP_temperature;BMP_pressure;BME280_temperature;BME280_humidity;BME280_pressure;Samples;Min_cycle;Max_cycle;Signal;HPM_P1;HPM_P2
2023/09/18 00:01:50;;;;;;;8.63;7.90;;;20.20;99.90;;;;;;5053541;28;20191;-69
2023/09/18 00:04:15;;;;;;;8.03;7.33;;;20.10;99.90;;;;;;5053556;28;20917;-69
2023/09/18 00:06:41;;;;;;;8.33;7.63;;;20.10;99.90;;;;;;5053630;28;20615;-69
2023/09/18 00:09:11;;;;;;;8.30;7.23;;;20.10;99.90;;;;;;5053629;28;20229;-69
2023/09/18 00:11:37;;;;;;;8.40;7.47;;;20.10;99.90;;;;;;5053447;28;20237;-68
2023/09/18 00:14:03;;;;;;;6.97;6.37;;;20.10;99.90;;;;;;5053297;28;20451;-68
2023/09/18 00:16:29;;;;;;;7.87;7.17;;;20.10;99.90;;;;;;5053492;28;20423;-69
2023/09/18 00:18:54;;;;;;;7.73;6.93;;;20.00;99.90;;;;;;5053577;28;20252;-68
2023/09/18 00:21:20;;;;;;;7.57;6.97;;;20.00;99.90;;;;;;5078995;22;20240;-69
2023/09/18 00:23:46;;;;;;;8.20;6.73;;;20.00;99.90;;;;;;5066078;28;20208;-70
2023/09/18 00:26:12;;;;;;;8.00;7.30;;;20.00;99.90;;;;;;5053216;28;20449;-70
2023/09/18 00:28:37;;;;;;;10.87;7.40;;;19.90;99.90;;;;;;5072227;28;20184;-72
2023/09/18 00:31:03;;;;;;;11.67;7.60;;;19.90;99.90;;;;;;5071947;28;20228;-71
2023/09/18 00:33:28;;;;;;;7.57;6.97;;;19.90;99.90;;;;;;5071824;28;20707;-69
2023/09/18 00:35:54;;;;;;;8.00;7.30;;;19.90;99.90;;;;;;5071927;28;20182;-70
2023/09/18 00:38:20;;;;;;;7.67;6.97;;;19.80;99.90;;;;;;5071593;28;20205;-69
2023/09/18 00:40:46;;;;;;;7.53;6.93;;;19.80;99.90;;;;;;5071759;28;20189;-69
2023/09/18 00:43:11;;;;;;;8.23;7.43;;;19.70;99.90;;;;;;5070088;28;20196;-71
2023/09/18 00:45:41;;;;;;;7.90;7.23;;;19.70;99.90;;;;;;5051644;28;20185;-72
2023/09/18 00:48:07;;;;;;;6.43;5.93;;;19.70;99.90;;;;;;5051520;28;20167;-70
2023/09/18 00:50:33;;;;;;;7.80;7.20;;;19.70;99.90;;;;;;5051763;28;20434;-70
2023/09/18 00:53:00;;;;;;;8.33;7.63;;;19.70;99.90;;;;;;5051437;28;20397;-70
2023/09/18 00:55:27;;;;;;;7.20;6.60;;;19.60;99.90;;;;;;5051570;28;20414;-72
2023/09/18 00:57:55;;;;;;;7.37;6.77;;;19.60;99.90;;;;;;5051663;28;20456;-71
2023/09/18 01:00:22;;;;;;;8.20;7.40;;;19.60;99.90;;;;;;5051877;28;20941;-71
2023/09/18 01:02:48;;;;;;;7.23;6.53;;;19.60;99.90;;;;;;5051352;28;20409;-71
2023/09/18 01:05:16;;;;;;;8.23;7.40;;;19.60;99.90;;;;;;5051530;28;20415;-71
2023/09/18 01:07:42;;;;;;;7.00;6.50;;;19.60;99.90;;;;;;5051439;28;20449;-75
2023/09/18 01:10:15;;;;;;;7.77;7.10;;;19.50;99.90;;;;;;5051034;28;20414;-70
2023/09/18 01:12:46;;;;;;;9.07;8.17;;;19.50;99.90;;;;;;5051538;28;20457;-71
2023/09/18 01:15:18;;;;;;;8.10;7.40;;;19.40;99.90;;;;;;5052077;28;20901;-72
2023/09/18 01:17:44;;;;;;;7.40;6.80;;;19.40;99.90;;;;;;5051604;28;20443;-71
2023/09/18 01:20:11;;;;;;;10.03;7.43;;;19.40;99.90;;;;;;5050241;28;20426;-71
2023/09/18 01:22:37;;;;;;;8.00;7.30;;;19.40;99.90;;;;;;5049997;28;20464;-71
2023/09/18 01:25:03;;;;;;;9.63;7.30;;;19.40;99.90;;;;;;5051094;28;20424;-72
2023/09/18 01:27:29;;;;;;;7.83;7.13;;;19.40;99.90;;;;;;5050891;28;20172;-71
2023/09/18 01:29:54;;;;;;;7.20;6.50;;;19.40;99.90;;;;;;5050387;28;20508;-73
2023/09/18 01:32:24;;;;;;;8.00;7.30;;;19.30;99.90;;;;;;5051582;28;20195;-69
2023/09/18 01:34:52;;;;;;;7.43;6.67;;;19.30;99.90;;;;;;5071180;28;20168;-70
2023/09/18 01:37:21;;;;;;;7.03;6.30;;;19.30;99.90;;;;;;5070545;28;20480;-69
2023/09/18 01:39:49;;;;;;;7.90;7.23;;;19.20;99.90;;;;;;5070625;28;20605;-72
2023/09/18 01:42:15;;;;;;;7.77;7.17;;;19.20;99.90;;;;;;5070357;28;20434;-71
2023/09/18 01:44:41;;;;;;;7.43;6.83;;;19.20;99.90;;;;;;5070834;28;20408;-72
2023/09/18 01:47:10;;;;;;;8.50;7.67;;;19.20;99.90;;;;;;5070852;28;20533;-71
2023/09/18 01:49:38;;;;;;;8.57;7.87;;;19.20;99.90;;;;;;5043273;28;20496;-70
2023/09/18 01:52:05;;;;;;;7.87;7.20;;;19.10;99.90;;;;;;5050931;28;20514;-69
2023/09/18 01:54:32;;;;;;;7.93;6.97;;;19.10;99.90;;;;;;5050041;28;20421;-70
2023/09/18 01:56:58;;;;;;;7.20;6.50;;;19.10;99.90;;;;;;5050401;28;20550;-70
2023/09/18 01:59:24;;;;;;;8.13;7.10;;;19.10;99.90;;;;;;5050370;28;20594;-70
2023/09/18 02:01:51;;;;;;;7.17;6.60;;;19.10;99.90;;;;;;5050228;28;20626;-69
2023/09/18 02:04:17;;;;;;;7.37;6.67;;;19.10;99.90;;;;;;5050302;28;20405;-71
2023/09/18 02:06:44;;;;;;;7.50;6.80;;;19.00;99.90;;;;;;5050463;28;20970;-71
2023/09/18 02:09:10;;;;;;;7.90;7.30;;;19.00;99.90;;;;;;5058779;28;20560;-70
2023/09/18 02:11:38;;;;;;;8.40;7.70;;;18.90;99.90;;;;;;5061959;28;20449;-70
2023/09/18 02:14:05;;;;;;;6.53;6.03;;;18.90;99.90;;;;;;5070278;28;20415;-69
2023/09/18 02:16:33;;;;;;;7.83;7.10;;;18.90;99.90;;;;;;5059167;28;20423;-70
2023/09/18 02:18:59;;;;;;;7.37;6.77;;;18.90;99.90;;;;;;5050314;28;20411;-71
2023/09/18 02:21:25;;;;;;;7.40;6.60;;;18.90;99.90;;;;;;5052148;28;20452;-72
2023/09/18 02:23:52;;;;;;;6.40;5.90;;;18.90;99.90;;;;;;5064543;28;20404;-69
2023/09/18 02:26:22;;;;;;;7.03;6.43;;;18.80;99.90;;;;;;5050369;28;20579;-70
2023/09/18 02:28:47;;;;;;;7.73;7.13;;;18.80;99.90;;;;;;5050203;28;20437;-72
2023/09/18 02:31:13;;;;;;;7.10;6.50;;;18.80;99.90;;;;;;5050133;28;20467;-69
2023/09/18 02:33:39;;;;;;;7.53;6.83;;;18.70;99.90;;;;;;5050182;28;20168;-69
2023/09/18 02:36:05;;;;;;;8.23;7.43;;;18.70;99.90;;;;;;5050076;28;20266;-69
2023/09/18 02:38:31;;;;;;;7.47;6.87;;;18.70;99.90;;;;;;5050352;28;20544;-68
2023/09/18 02:40:57;;;;;;;6.90;6.20;;;18.70;99.90;;;;;;5049931;28;20611;-69
2023/09/18 02:43:23;;;;;;;7.70;7.10;;;18.60;99.90;;;;;;5059647;28;20494;-71
2023/09/18 02:45:50;;;;;;;7.37;6.53;;;18.60;99.90;;;;;;5070235;28;20711;-70
2023/09/18 02:48:16;;;;;;;7.77;7.17;;;18.60;99.90;;;;;;5069376;28;20952;-70
2023/09/18 02:50:42;;;;;;;7.33;6.73;;;18.60;99.90;;;;;;5062637;28;20510;-73
2023/09/18 02:53:16;;;;;;;7.13;6.53;;;18.60;99.90;;;;;;5069729;28;20605;-71
2023/09/18 02:55:41;;;;;;;7.77;6.97;;;18.60;99.90;;;;;;5050019;28;20179;-71
2023/09/18 02:58:09;;;;;;;6.90;6.20;;;18.60;99.90;;;;;;5049712;28;20507;-70
2023/09/18 03:00:34;;;;;;;7.80;7.20;;;18.60;99.90;;;;;;5049929;28;20274;-70
2023/09/18 03:03:00;;;;;;;6.73;6.13;;;18.60;99.90;;;;;;5049823;28;20489;-70
2023/09/18 03:05:26;;;;;;;7.53;6.83;;;18.60;99.90;;;;;;5049965;28;20172;-70
2023/09/18 03:07:52;;;;;;;7.70;7.00;;;18.50;99.90;;;;;;5053157;28;20185;-69
2023/09/18 03:10:18;;;;;;;7.30;6.70;;;18.50;99.90;;;;;;5053522;28;20419;-70
2023/09/18 03:12:47;;;;;;;7.63;7.03;;;18.40;99.90;;;;;;5064734;28;20341;-69
2023/09/18 03:15:13;;;;;;;8.57;7.77;;;18.40;99.90;;;;;;5073535;28;20741;-70
2023/09/18 03:17:40;;;;;;;9.53;7.30;;;18.40;99.90;;;;;;5045742;28;20459;-72
2023/09/18 03:20:07;;;;;;;7.40;6.80;;;18.30;99.90;;;;;;5053478;28;20201;-69
2023/09/18 03:22:32;;;;;;;9.80;8.10;;;18.30;99.90;;;;;;5053205;28;20579;-73
2023/09/18 03:24:58;;;;;;;10.20;6.97;;;18.30;99.90;;;;;;5053709;28;20883;-69
2023/09/18 03:27:28;;;;;;;8.20;7.43;;;18.20;99.90;;;;;;5053594;28;20514;-69
2023/09/18 03:29:54;;;;;;;7.57;6.97;;;18.20;99.90;;;;;;5053689;28;20179;-69
2023/09/18 03:32:20;;;;;;;7.97;7.17;;;18.20;99.90;;;;;;5062320;28;20443;-70
2023/09/18 03:34:46;;;;;;;8.40;7.67;;;18.20;99.90;;;;;;5073272;28;20423;-70
2023/09/18 03:37:12;;;;;;;8.03;7.23;;;18.10;99.90;;;;;;5073086;28;20188;-69
2023/09/18 03:39:37;;;;;;;7.00;6.47;;;18.10;99.90;;;;;;5071859;28;20174;-69
2023/09/18 03:42:03;;;;;;;7.30;6.70;;;18.10;99.90;;;;;;5071715;28;20595;-72
2023/09/18 03:44:28;;;;;;;8.20;7.50;;;18.10;99.90;;;;;;5072989;28;20233;-69
2023/09/18 03:46:54;;;;;;;8.63;7.73;;;18.00;99.90;;;;;;5067609;28;20269;-70
2023/09/18 03:49:20;;;;;;;8.60;7.80;;;18.00;99.90;;;;;;5070222;28;20550;-69
2023/09/18 03:51:46;;;;;;;8.47;7.57;;;18.00;99.90;;;;;;5068441;28;20249;-71
2023/09/18 03:54:11;;;;;;;8.47;7.67;;;18.00;99.90;;;;;;5052622;28;20561;-70
2023/09/18 03:56:37;;;;;;;7.80;7.20;;;17.90;99.90;;;;;;5052663;28;20178;-73
2023/09/18 03:59:04;;;;;;;8.60;7.80;;;18.00;99.90;;;;;;5052677;28;20642;-69
2023/09/18 04:01:30;;;;;;;7.97;7.27;;;17.90;99.90;;;;;;5052620;28;20192;-70
2023/09/18 04:03:55;;;;;;;8.43;7.50;;;17.90;99.90;;;;;;5066252;28;20420;-70
2023/09/18 04:06:23;;;;;;;9.00;8.20;;;17.90;99.90;;;;;;5072571;28;20167;-71
2023/09/18 04:08:51;;;;;;;7.93;7.20;;;17.90;99.90;;;;;;5072665;28;20185;-71
2023/09/18 04:11:16;;;;;;;7.80;6.70;;;17.90;99.90;;;;;;5064611;28;20433;-71
2023/09/18 04:13:42;;;;;;;7.67;6.87;;;17.90;99.90;;;;;;5052837;28;20914;-71
2023/09/18 04:16:07;;;;;;;8.10;7.30;;;17.90;99.90;;;;;;5052808;28;20592;-71
2023/09/18 04:18:33;;;;;;;8.00;6.07;;;17.90;99.90;;;;;;5051615;28;20209;-69
2023/09/18 04:20:59;;;;;;;8.33;7.63;;;17.80;99.90;;;;;;5057855;28;20668;-70
2023/09/18 04:23:26;;;;;;;7.80;6.40;;;17.80;99.90;;;;;;5055838;28;20172;-70
2023/09/18 04:25:53;;;;;;;8.70;8.00;;;17.80;99.90;;;;;;5072510;28;20201;-69
2023/09/18 04:28:21;;;;;;;9.13;7.73;;;17.80;99.90;;;;;;5072104;28;20424;-69
2023/09/18 04:30:47;;;;;;;9.40;8.50;;;17.80;99.90;;;;;;5072228;28;20448;-70
2023/09/18 04:33:16;;;;;;;9.07;7.27;;;17.70;99.90;;;;;;5072001;28;20474;-70
2023/09/18 04:35:43;;;;;;;8.43;7.70;;;17.70;99.90;;;;;;5071926;28;20418;-70
2023/09/18 04:38:15;;;;;;;9.30;8.50;;;17.70;99.90;;;;;;5072011;28;20479;-70
2023/09/18 04:40:41;;;;;;;7.03;6.43;;;17.80;99.90;;;;;;5068623;28;20472;-71
2023/09/18 04:43:06;;;;;;;8.17;7.47;;;17.80;99.90;;;;;;5065399;28;20413;-70
2023/09/18 04:45:32;;;;;;;7.13;6.53;;;17.70;99.90;;;;;;5069682;28;20416;-72
2023/09/18 04:47:58;;;;;;;8.07;7.37;;;17.70;99.90;;;;;;5051842;28;20687;-69
2023/09/18 04:50:26;;;;;;;7.63;6.93;;;17.70;99.90;;;;;;5051560;28;20421;-69
2023/09/18 04:52:54;;;;;;;8.10;7.40;;;17.70;99.90;;;;;;5051426;28;20498;-69
2023/09/18 04:55:20;;;;;;;8.73;7.60;;;17.80;99.90;;;;;;5051727;28;20435;-69
2023/09/18 04:57:45;;;;;;;8.67;7.87;;;17.70;99.90;;;;;;5071582;28;20455;-70
2023/09/18 05:00:13;;;;;;;8.07;7.37;;;17.70;99.90;;;;;;5071669;28;20243;-71
2023/09/18 05:02:39;;;;;;;8.10;7.40;;;17.80;99.90;;;;;;5068514;28;20213;-70
2023/09/18 05:05:06;;;;;;;8.40;7.67;;;17.80;99.90;;;;;;5051712;28;20418;-71
2023/09/18 05:07:32;;;;;;;8.20;7.47;;;17.70;99.90;;;;;;5050085;28;20907;-69
2023/09/18 05:09:58;;;;;;;7.43;6.73;;;17.80;99.90;;;;;;5056898;28;20423;-69
2023/09/18 05:12:23;;;;;;;8.57;7.80;;;17.80;99.90;;;;;;5071021;28;20451;-69
2023/09/18 05:14:50;;;;;;;12.03;9.03;;;17.80;99.90;;;;;;5071372;28;20261;-70
2023/09/18 05:17:17;;;;;;;8.27;7.37;;;17.80;99.90;;;;;;5071021;28;20248;-69
2023/09/18 05:19:45;;;;;;;8.47;7.67;;;17.80;99.90;;;;;;5071143;28;20509;-71
2023/09/18 05:22:12;;;;;;;8.57;7.90;;;17.90;99.90;;;;;;5064193;28;20449;-70
2023/09/18 05:24:38;;;;;;;8.40;7.70;;;17.90;99.90;;;;;;5051065;28;20422;-70
2023/09/18 05:27:06;;;;;;;7.80;7.10;;;18.00;99.90;;;;;;5051589;28;20731;-70
2023/09/18 05:29:32;;;;;;;8.37;7.67;;;18.10;99.90;;;;;;5050859;28;20565;-70
2023/09/18 05:31:57;;;;;;;7.63;7.03;;;18.10;99.90;;;;;;5050734;28;20474;-70
2023/09/18 05:34:23;;;;;;;8.40;7.70;;;18.20;99.90;;;;;;5059154;28;20819;-71
2023/09/18 05:36:49;;;;;;;9.17;8.27;;;18.30;99.90;;;;;;5054829;28;20182;-72
2023/09/18 05:39:15;;;;;;;7.70;7.10;;;18.30;99.90;;;;;;5070681;28;20707;-70
2023/09/18 05:41:41;;;;;;;8.23;7.53;;;18.50;99.90;;;;;;5067875;28;20560;-69
2023/09/18 05:44:07;;;;;;;8.63;7.83;;;18.60;99.90;;;;;;5057202;28;20244;-69
2023/09/18 05:46:35;;;;;;;7.63;7.03;;;18.80;99.90;;;;;;5070847;28;20171;-69
2023/09/18 05:49:00;;;;;;;7.20;6.60;;;19.10;99.90;;;;;;5071596;28;20504;-70
2023/09/18 05:51:27;;;;;;;8.10;7.23;;;19.50;99.90;;;;;;5071541;28;20465;-71
2023/09/18 05:53:52;;;;;;;6.70;6.07;;;19.90;99.90;;;;;;5071769;28;20238;-71
2023/09/18 05:56:18;;;;;;;7.37;6.30;;;20.00;99.90;;;;;;5071306;28;20419;-70
2023/09/18 05:58:44;;;;;;;7.47;6.87;;;19.80;99.90;;;;;;5051031;28;20201;-71
2023/09/18 06:01:10;;;;;;;6.90;6.30;;;20.00;99.90;;;;;;5050551;28;20680;-69
2023/09/18 06:03:36;;;;;;;6.20;5.63;;;20.20;99.90;;;;;;5050624;28;20450;-70
2023/09/18 06:06:05;;;;;;;7.27;6.03;;;20.50;99.90;;;;;;5050673;28;20584;-71
2023/09/18 06:08:31;;;;;;;5.83;5.43;;;20.70;99.90;;;;;;5050229;28;20223;-70
2023/09/18 06:10:59;;;;;;;6.20;5.67;;;20.90;99.90;;;;;;5050312;28;20452;-72
2023/09/18 06:13:26;;;;;;;6.90;6.30;;;21.10;99.90;;;;;;5050050;28;20634;-71
2023/09/18 06:15:54;;;;;;;7.50;6.53;;;21.20;99.90;;;;;;5050543;28;20420;-70
2023/09/18 06:18:20;;;;;;;7.20;5.63;;;21.00;99.90;;;;;;5050292;28;20527;-70
2023/09/18 06:20:47;;;;;;;6.30;5.57;;;21.00;99.90;;;;;;5066885;28;20555;-71
2023/09/18 06:23:12;;;;;;;7.20;6.50;;;20.90;99.90;;;;;;5050596;28;20418;-70
2023/09/18 06:25:39;;;;;;;7.20;6.50;;;20.80;99.90;;;;;;5068908;28;20912;-71
2023/09/18 06:28:05;;;;;;;6.60;6.00;;;20.90;99.90;;;;;;5084343;22;20217;-72
2023/09/18 06:30:32;;;;;;;11.60;6.90;;;21.10;99.90;;;;;;5060689;28;20426;-72
2023/09/18 06:32:59;;;;;;;6.87;6.37;;;20.90;99.90;;;;;;5071337;28;20418;-74
2023/09/18 06:35:24;;;;;;;6.57;6.07;;;21.00;99.90;;;;;;5071579;28;20420;-73
2023/09/18 06:37:50;;;;;;;7.60;6.40;;;21.00;99.90;;;;;;5071404;28;20557;-72
2023/09/18 06:40:15;;;;;;;8.73;7.20;;;21.10;99.90;;;;;;5071496;28;20167;-73
2023/09/18 06:42:41;;;;;;;8.00;6.60;;;21.60;99.90;;;;;;5074316;28;20173;-71
2023/09/18 06:45:07;;;;;;;6.07;5.57;;;22.00;99.90;;;;;;5075418;28;20260;-72
2023/09/18 06:47:33;;;;;;;6.60;5.70;;;22.30;99.90;;;;;;5075460;28;20221;-72
2023/09/18 06:50:00;;;;;;;5.50;5.00;;;22.50;99.90;;;;;;5075405;28;20444;-72
2023/09/18 06:52:27;;;;;;;6.30;5.80;;;22.30;99.90;;;;;;5075096;28;20411;-72
2023/09/18 06:54:53;;;;;;;8.50;5.50;;;22.50;99.90;;;;;;5075207;28;20420;-72
2023/09/18 06:57:20;;;;;;;5.70;4.70;;;23.30;99.90;;;;;;5074943;28;20466;-72
2023/09/18 06:59:46;;;;;;;5.37;4.97;;;23.90;99.90;;;;;;5075201;28;20538;-73
2023/09/18 07:02:14;;;;;;;6.67;6.07;;;24.00;99.90;;;;;;5075227;28;20502;-72
2023/09/18 07:04:44;;;;;;;5.13;4.63;;;23.40;99.90;;;;;;5075052;28;20281;-73
2023/09/18 07:07:13;;;;;;;5.57;5.07;;;24.30;99.90;;;;;;5075072;28;20465;-71
2023/09/18 07:09:41;;;;;;;5.33;4.80;;;25.10;99.90;;;;;;5074789;28;20444;-73
2023/09/18 07:12:08;;;;;;;5.20;4.70;;;25.80;99.90;;;;;;5075022;28;20416;-71
2023/09/18 07:14:33;;;;;;;5.60;5.20;;;25.30;99.90;;;;;;5074963;28;20808;-71
2023/09/18 07:17:00;;;;;;;4.97;4.57;;;25.30;99.90;;;;;;5075098;28;20424;-72
2023/09/18 07:19:26;;;;;;;5.40;5.00;;;26.00;99.90;;;;;;5075120;28;20253;-74
2023/09/18 07:21:52;;;;;;;5.20;4.70;;;26.10;99.90;;;;;;5046599;28;20504;-72
2023/09/18 07:24:17;;;;;;;5.13;4.73;;;25.90;99.90;;;;;;5054633;28;20167;-72
2023/09/18 07:26:45;;;;;;;4.67;4.27;;;26.40;99.90;;;;;;5054791;28;20193;-72
2023/09/18 07:29:11;;;;;;;5.23;4.83;;;26.00;99.90;;;;;;5054343;28;20210;-72
2023/09/18 07:31:37;;;;;;;5.33;4.83;;;26.40;99.90;;;;;;5054341;28;20749;-71
2023/09/18 07:34:04;;;;;;;5.73;5.07;;;26.50;99.90;;;;;;5054996;28;20641;-72
2023/09/18 07:36:29;;;;;;;3.87;3.57;;;26.30;99.90;;;;;;5054759;28;20409;-72
2023/09/18 07:38:56;;;;;;;8.23;5.10;;;26.20;99.90;;;;;;5054295;28;20830;-72
2023/09/18 07:41:22;;;;;;;4.50;4.20;;;25.80;99.90;;;;;;5054619;28;20179;-72
2023/09/18 07:43:48;;;;;;;4.70;4.30;;;25.90;99.90;;;;;;5054124;28;20538;-71
2023/09/18 07:46:13;;;;;;;5.27;4.77;;;26.90;99.90;;;;;;5069220;28;20408;-73
2023/09/18 07:48:39;;;;;;;4.67;4.27;;;26.40;99.90;;;;;;5074075;28;20560;-71
2023/09/18 07:51:05;;;;;;;4.63;4.23;;;26.20;99.90;;;;;;5074357;28;20179;-71
2023/09/18 07:53:32;;;;;;;7.60;4.77;;;27.10;99.90;;;;;;5072703;28;20169;-71
2023/09/18 07:55:58;;;;;;;4.10;3.80;;;27.80;99.90;;;;;;5074334;28;20170;-71
2023/09/18 07:58:27;;;;;;;4.60;4.20;;;28.30;99.90;;;;;;5073739;28;20460;-72
2023/09/18 08:00:57;;;;;;;4.23;3.93;;;27.60;99.90;;;;;;5073897;28;20409;-73
2023/09/18 08:03:23;;;;;;;5.50;5.00;;;27.50;99.90;;;;;;5072577;28;20767;-71
2023/09/18 08:05:53;;;;;;;5.20;4.70;;;27.00;99.90;;;;;;5073850;28;20420;-71
2023/09/18 08:08:20;;;;;;;5.00;4.10;;;26.30;99.90;;;;;;5074039;28;20523;-71
2023/09/18 08:10:46;;;;;;;4.60;4.20;;;26.50;99.90;;;;;;5073894;28;20821;-71
2023/09/18 08:13:12;;;;;;;4.37;4.07;;;27.20;99.90;;;;;;5073785;28;20420;-71
2023/09/18 08:15:37;;;;;;;3.83;3.53;;;27.50;99.90;;;;;;5053107;28;20425;-71
2023/09/18 08:18:03;;;;;;;5.30;4.40;;;27.60;99.90;;;;;;5068766;28;20283;-71
2023/09/18 08:20:30;;;;;;;4.93;4.53;;;27.60;99.90;;;;;;5053484;28;20231;-71
2023/09/18 08:22:56;;;;;;;4.20;3.73;;;27.70;99.90;;;;;;5056978;28;20404;-71
2023/09/18 08:25:22;;;;;;;8.30;4.43;;;28.00;99.90;;;;;;5073879;28;20436;-72
2023/09/18 08:27:48;;;;;;;4.50;4.10;;;27.90;99.90;;;;;;5073255;28;20884;-70
2023/09/18 08:30:14;;;;;;;7.03;4.07;;;27.80;99.90;;;;;;5073668;28;20178;-71
2023/09/18 08:32:41;;;;;;;4.93;4.63;;;27.70;99.90;;;;;;5071322;28;20416;-72
2023/09/18 08:35:08;;;;;;;5.23;4.73;;;26.90;99.90;;;;;;5073645;28;20416;-72
2023/09/18 08:37:34;;;;;;;4.80;4.47;;;27.20;99.90;;;;;;5073452;28;20471;-70
2023/09/18 08:40:09;;;;;;;5.20;4.63;;;27.30;99.90;;;;;;5073428;28;20421;-71
2023/09/18 08:42:36;;;;;;;5.00;4.60;;;26.70;99.90;;;;;;5073339;28;20169;-73
2023/09/18 08:45:03;;;;;;;4.83;4.43;;;26.90;99.90;;;;;;5073330;28;20401;-73
2023/09/18 08:47:30;;;;;;;6.70;6.07;;;27.20;99.90;;;;;;5072527;28;20424;-72
2023/09/18 08:49:58;;;;;;;5.00;4.60;;;27.10;99.90;;;;;;5053256;28;20413;-72
2023/09/18 08:52:25;;;;;;;5.00;4.57;;;27.00;99.90;;;;;;5053417;28;20416;-71
2023/09/18 08:54:52;;;;;;;5.37;4.03;;;27.30;99.90;;;;;;5052874;28;20421;-72
2023/09/18 08:57:18;;;;;;;7.83;4.47;;;27.40;99.90;;;;;;5052923;28;20538;-72
2023/09/18 08:59:46;;;;;;;4.63;4.33;;;27.70;99.90;;;;;;5052849;28;20417;-71
2023/09/18 09:02:12;;;;;;;6.37;5.70;;;28.10;99.90;;;;;;5052725;28;20810;-71
2023/09/18 09:04:38;;;;;;;5.37;4.90;;;28.30;99.90;;;;;;5052258;28;20413;-72
2023/09/18 09:07:04;;;;;;;6.30;5.80;;;27.90;99.90;;;;;;5052647;28;20173;-71
2023/09/18 09:09:30;;;;;;;5.33;4.00;;;27.90;99.90;;;;;;5052785;28;20466;-71
2023/09/18 09:11:56;;;;;;;4.03;3.73;;;28.30;99.90;;;;;;5072606;28;20438;-71
2023/09/18 09:14:27;;;;;;;3.87;3.50;;;28.60;99.90;;;;;;5074895;28;20510;-72
2023/09/18 09:16:54;;;;;;;5.17;4.67;;;28.40;99.90;;;;;;5075606;28;20746;-71
2023/09/18 09:19:32;;;;;;;4.57;4.17;;;28.10;99.90;;;;;;5077877;28;20420;-72
2023/09/18 09:21:58;;;;;;;5.00;4.60;;;28.30;99.90;;;;;;5071884;28;20412;-72
2023/09/18 09:24:56;;;;;;;6.50;4.70;;;28.60;99.90;;;;;;5052498;28;20414;-72
2023/09/18 09:27:22;;;;;;;4.70;3.70;;;27.80;99.90;;;;;;5029512;28;20614;-72
2023/09/18 09:30:08;;;;;;;5.43;4.53;;;27.50;99.90;;;;;;5052392;28;20958;-73
2023/09/18 09:32:33;;;;;;;4.13;3.83;;;27.50;99.90;;;;;;5051951;28;20253;-72
2023/09/18 09:35:06;;;;;;;5.67;5.20;;;27.20;99.90;;;;;;5052146;28;20979;-71
2023/09/18 09:37:32;;;;;;;4.20;3.90;;;26.80;99.90;;;;;;5068286;28;20212;-73
2023/09/18 09:40:14;;;;;;;4.37;3.97;;;27.00;99.90;;;;;;5072045;28;20408;-71
2023/09/18 09:42:40;;;;;;;4.67;4.17;;;27.10;99.90;;;;;;5071991;28;20261;-71
2023/09/18 09:45:12;;;;;;;6.00;5.50;;;27.20;99.90;;;;;;5072051;28;20409;-72
2023/09/18 09:47:38;;;;;;;4.30;3.90;;;27.20;99.90;;;;;;5071847;28;20438;-71
2023/09/18 09:50:09;;;;;;;5.10;4.53;;;26.90;99.90;;;;;;5071773;28;20459;-71
2023/09/18 09:52:35;;;;;;;4.10;3.80;;;26.60;99.90;;;;;;5071849;28;20522;-72
2023/09/18 09:55:04;;;;;;;5.47;4.60;;;26.70;99.90;;;;;;5072048;28;20499;-73
2023/09/18 09:57:31;;;;;;;5.50;4.67;;;26.70;99.90;;;;;;5072093;28;20224;-73
2023/09/18 10:00:22;;;;;;;9.83;8.87;;;26.80;99.90;;;;;;5072082;28;20413;-72
2023/09/18 10:02:49;;;;;;;8.80;4.93;;;27.00;99.90;;;;;;5071887;28;20431;-73
2023/09/18 10:05:18;;;;;;;6.13;5.53;;;27.00;99.90;;;;;;5072308;28;20411;-74
2023/09/18 10:07:44;;;;;;;4.43;4.13;;;26.90;99.90;;;;;;5072090;28;20431;-71
2023/09/18 10:10:10;;;;;;;4.53;3.83;;;26.90;99.90;;;;;;5072031;28;20494;-71
2023/09/18 10:12:38;;;;;;;5.50;4.70;;;26.90;99.90;;;;;;5071615;28;20526;-72
2023/09/18 10:15:05;;;;;;;6.70;5.03;;;26.80;99.90;;;;;;5071476;28;20420;-72
2023/09/18 10:17:33;;;;;;;6.30;4.83;;;26.80;99.90;;;;;;5070860;28;20452;-74
2023/09/18 10:20:09;;;;;;;4.00;3.70;;;26.80;99.90;;;;;;5071739;28;20416;-74
2023/09/18 10:22:39;;;;;;;6.17;4.53;;;26.70;99.90;;;;;;5062532;28;20435;-71
2023/09/18 10:25:18;;;;;;;4.70;4.27;;;26.60;99.90;;;;;;5051731;28;20413;-72
2023/09/18 10:27:53;;;;;;;4.70;4.40;;;26.80;99.90;;;;;;5052601;28;20456;-73
2023/09/18 10:30:20;;;;;;;5.73;4.90;;;26.80;99.90;;;;;;5071709;28;20931;-72
2023/09/18 10:32:46;;;;;;;5.23;4.83;;;26.90;99.90;;;;;;5071570;28;20469;-73
2023/09/18 10:35:12;;;;;;;4.43;4.13;;;26.90;99.90;;;;;;5071824;28;20474;-73
2023/09/18 10:37:38;;;;;;;6.47;5.90;;;26.80;99.90;;;;;;5071908;28;20937;-72
2023/09/18 10:40:07;;;;;;;5.10;4.60;;;26.80;99.90;;;;;;5071703;28;20213;-72
2023/09/18 10:42:38;;;;;;;4.77;4.37;;;27.00;99.90;;;;;;5070419;28;20495;-72
2023/09/18 10:45:04;;;;;;;4.93;4.53;;;27.10;99.90;;;;;;5051970;28;20416;-73
2023/09/18 10:47:32;;;;;;;6.47;4.40;;;27.30;99.90;;;;;;5052453;28;20448;-74
2023/09/18 10:49:58;;;;;;;4.90;4.40;;;27.10;99.90;;;;;;5051490;28;20418;-74
2023/09/18 10:52:23;;;;;;;7.67;5.80;;;27.20;99.90;;;;;;5051241;28;20421;-74
2023/09/18 10:54:49;;;;;;;5.70;4.70;;;27.10;99.90;;;;;;5051309;28;20179;-74
2023/09/18 10:57:15;;;;;;;6.73;6.03;;;27.00;99.90;;;;;;5051605;28;20206;-73
2023/09/18 10:59:47;;;;;;;6.43;5.87;;;27.00;99.90;;;;;;5058002;28;20670;-74
2023/09/18 11:02:17;;;;;;;11.40;8.10;;;26.90;99.90;;;;;;5051307;28;20199;-73
2023/09/18 11:04:44;;;;;;;7.33;5.40;;;26.80;99.90;;;;;;5051396;28;20478;-73
2023/09/18 11:07:22;;;;;;;5.60;5.10;;;26.90;99.90;;;;;;5051272;28;20457;-72
2023/09/18 11:09:48;;;;;;;5.43;4.43;;;26.80;99.90;;;;;;5051109;28;20786;-74
2023/09/18 11:12:18;;;;;;;4.53;4.13;;;26.80;99.90;;;;;;5051594;28;20419;-74
2023/09/18 11:14:46;;;;;;;11.23;10.13;;;26.80;99.90;;;;;;5051103;28;20175;-74
2023/09/18 11:17:31;;;;;;;12.70;11.43;;;26.80;99.90;;;;;;5050845;28;21014;-73
2023/09/18 11:20:18;;;;;;;10.03;9.03;;;26.70;99.90;;;;;;5050975;28;20424;-74
2023/09/18 11:23:12;;;;;;;7.73;7.13;;;26.60;99.90;;;;;;5059820;28;20411;-74
2023/09/18 11:25:41;;;;;;;12.07;10.90;;;26.60;99.90;;;;;;5069632;28;20424;-73
2023/09/18 11:28:12;;;;;;;3.97;3.67;;;26.70;99.90;;;;;;5072855;28;20801;-73
2023/09/18 11:30:47;;;;;;;11.90;7.97;;;26.50;99.90;;;;;;5074570;28;20403;-73
2023/09/18 11:33:13;;;;;;;6.30;5.40;;;26.50;99.90;;;;;;5054573;28;20491;-73
2023/09/18 11:35:52;;;;;;;14.23;12.73;;;26.40;99.90;;;;;;5054520;28;20421;-73
2023/09/18 11:38:18;;;;;;;5.53;4.97;;;26.50;99.90;;;;;;5054401;28;20459;-73
2023/09/18 11:40:45;;;;;;;9.50;7.40;;;26.40;99.90;;;;;;5063064;28;20918;-73
2023/09/18 11:43:29;;;;;;;7.60;6.10;;;26.50;99.90;;;;;;5074443;28;20215;-73
2023/09/18 11:45:59;;;;;;;13.73;12.33;;;26.60;99.90;;;;;;5074269;28;20499;-75
2023/09/18 11:48:30;;;;;;;5.43;4.87;;;26.70;99.90;;;;;;5074453;28;20439;-73
2023/09/18 11:50:57;;;;;;;6.70;6.10;;;26.70;99.90;;;;;;5074013;28;20412;-73
2023/09/18 11:53:24;;;;;;;5.73;5.07;;;26.60;99.90;;;;;;5074519;28;20420;-72
2023/09/18 11:55:50;;;;;;;6.40;4.90;;;26.30;99.90;;;;;;5074292;28;20424;-72
2023/09/18 11:58:16;;;;;;;6.30;5.80;;;26.20;99.90;;;;;;5074303;28;20455;-75
2023/09/18 12:00:48;;;;;;;6.60;6.10;;;26.20;99.90;;;;;;5055374;28;20416;-74
2023/09/18 12:03:17;;;;;;;6.27;5.67;;;26.10;99.90;;;;;;5054561;28;20447;-73
2023/09/18 12:05:44;;;;;;;5.83;5.33;;;26.10;99.90;;;;;;5053158;28;20416;-74
2023/09/18 12:08:11;;;;;;;6.10;5.50;;;26.10;99.90;;;;;;5054304;28;20491;-74
2023/09/18 12:10:37;;;;;;;5.03;4.63;;;26.20;99.90;;;;;;5052622;28;20503;-73
2023/09/18 12:13:08;;;;;;;5.50;4.90;;;26.30;99.90;;;;;;5053877;28;20466;-75
2023/09/18 12:15:34;;;;;;;5.07;4.57;;;26.40;99.90;;;;;;5054164;28;20427;-74
2023/09/18 12:18:11;;;;;;;7.30;6.67;;;26.40;99.90;;;;;;5054061;28;20453;-75
2023/09/18 12:20:38;;;;;;;6.10;5.60;;;26.40;99.90;;;;;;5055098;28;20167;-75
2023/09/18 12:23:04;;;;;;;11.57;10.53;;;26.40;99.90;;;;;;5066842;28;20404;-73
2023/09/18 12:25:29;;;;;;;5.30;4.80;;;26.50;99.90;;;;;;5077369;28;20419;-73
2023/09/18 12:28:03;;;;;;;9.20;8.40;;;26.50;99.90;;;;;;5073855;28;20458;-73
2023/09/18 12:30:31;;;;;;;6.80;6.20;;;26.60;99.90;;;;;;5072233;28;20269;-74
2023/09/18 12:32:59;;;;;;;4.47;3.90;;;26.70;99.90;;;;;;5073525;28;20419;-73
2023/09/18 12:35:29;;;;;;;5.17;4.50;;;26.70;99.90;;;;;;5073767;28;20900;-72
2023/09/18 12:37:56;;;;;;;5.93;4.87;;;26.70;99.90;;;;;;5057262;28;20449;-73
2023/09/18 12:40:25;;;;;;;5.33;4.83;;;26.90;99.90;;;;;;5052658;28;20458;-72
2023/09/18 12:42:53;;;;;;;5.27;4.83;;;26.90;99.90;;;;;;5051830;28;20462;-73
2023/09/18 12:45:19;;;;;;;4.70;4.40;;;26.60;99.90;;;;;;5053497;28;20437;-73
2023/09/18 12:47:45;;;;;;;5.90;5.40;;;26.50;99.90;;;;;;5053133;28;20472;-74